createdAt,value
2023-01-08T00:01:05.991Z,13.63
2023-01-08T00:03:34.045Z,9.13
2023-01-08T00:06:04.243Z,7.82
2023-01-08T00:08:32.903Z,11.50
2023-01-08T00:11:01.321Z,9.18
2023-01-08T00:13:29.387Z,12.15
2023-01-08T00:15:57.151Z,15.27
2023-01-08T00:18:27.161Z,9.02
2023-01-08T00:20:54.980Z,6.38
2023-01-08T00:23:24.337Z,7.28
2023-01-08T00:25:52.060Z,7.47
2023-01-08T00:28:20.941Z,9.25
2023-01-08T00:30:49.484Z,6.47
2023-01-08T00:33:18.152Z,7.07
2023-01-08T00:35:46.105Z,7.28
2023-01-08T00:38:14.070Z,7.43
2023-01-08T00:40:43.232Z,11.98
2023-01-08T00:43:11.055Z,6.25
2023-01-08T00:45:38.794Z,7.63
2023-01-08T00:48:07.359Z,8.07
2023-01-08T00:50:35.102Z,5.90
2023-01-08T00:53:03.509Z,7.03
2023-01-08T00:55:31.533Z,7.25
2023-01-08T00:58:00.818Z,7.40
2023-01-08T01:00:28.676Z,7.25
2023-01-08T01:02:56.558Z,7.35
2023-01-08T01:05:24.728Z,7.63
2023-01-08T01:07:52.586Z,11.18
2023-01-08T01:10:20.417Z,10.13
2023-01-08T01:12:48.254Z,8.45
2023-01-08T01:15:20.820Z,10.85
2023-01-08T01:17:48.624Z,9.35
2023-01-08T01:20:17.664Z,8.63
2023-01-08T01:22:45.479Z,9.32
2023-01-08T01:25:13.435Z,9.02
2023-01-08T01:27:41.243Z,11.63
2023-01-08T01:30:11.082Z,7.60
2023-01-08T01:32:40.403Z,11.63
2023-01-08T01:35:09.030Z,6.65
2023-01-08T01:37:36.888Z,8.80
2023-01-08T01:40:05.307Z,9.75
2023-01-08T01:42:41.979Z,11.73
2023-01-08T01:45:18.095Z,9.43
2023-01-08T01:47:50.790Z,8.13
2023-01-08T01:50:21.456Z,8.13
2023-01-08T01:52:55.747Z,9.75
2023-01-08T01:55:23.776Z,8.30
2023-01-08T01:57:57.249Z,7.40
2023-01-08T02:00:26.204Z,8.52
2023-01-08T02:02:56.990Z,5.05
2023-01-08T02:05:30.327Z,6.80
2023-01-08T02:08:06.061Z,4.97
2023-01-08T02:10:40.670Z,4.80
2023-01-08T02:13:14.077Z,3.30
2023-01-08T02:15:49.208Z,4.47
2023-01-08T02:18:21.563Z,2.55
2023-01-08T02:20:55.602Z,3.85
2023-01-08T02:23:31.462Z,3.72
2023-01-08T02:26:11.778Z,4.32
2023-01-08T02:28:43.611Z,3.97
2023-01-08T02:31:13.170Z,4.63
2023-01-08T02:33:41.365Z,5.70
2023-01-08T02:36:21.729Z,4.50
2023-01-08T02:39:01.305Z,4.65
2023-01-08T02:41:42.431Z,5.47
2023-01-08T02:44:14.020Z,3.70
2023-01-08T02:46:43.276Z,3.10
2023-01-08T02:49:14.407Z,3.80
2023-01-08T02:51:46.656Z,2.70
2023-01-08T02:54:17.994Z,3.28
2023-01-08T02:56:52.345Z,3.15
2023-01-08T02:59:22.143Z,3.50
2023-01-08T03:01:50.610Z,3.97
2023-01-08T03:04:20.645Z,4.10
2023-01-08T03:06:49.406Z,2.80
2023-01-08T03:09:18.252Z,3.97
2023-01-08T03:11:54.700Z,5.15
2023-01-08T03:14:29.291Z,2.90
2023-01-08T03:17:00.086Z,5.35
2023-01-08T03:19:31.137Z,3.75
2023-01-08T03:22:02.172Z,5.47
2023-01-08T03:24:34.417Z,3.97
2023-01-08T03:27:08.102Z,4.30
2023-01-08T03:29:37.715Z,5.10
2023-01-08T03:32:10.165Z,3.45
2023-01-08T03:34:41.646Z,4.45
2023-01-08T03:37:11.282Z,4.72
2023-01-08T03:39:43.341Z,5.63
2023-01-08T03:42:16.437Z,4.03
2023-01-08T03:44:44.581Z,3.55
2023-01-08T03:47:14.183Z,3.67
2023-01-08T03:49:44.681Z,5.10
2023-01-08T03:52:22.596Z,5.18
2023-01-08T03:54:50.578Z,3.60
2023-01-08T03:57:19.788Z,4.70
2023-01-08T03:59:48.000Z,3.45
2023-01-08T04:02:16.589Z,3.85
2023-01-08T04:04:44.641Z,5.47
2023-01-08T04:07:13.544Z,5.18
2023-01-08T04:09:41.568Z,5.00
2023-01-08T04:12:09.300Z,5.22
2023-01-08T04:14:38.581Z,4.68
2023-01-08T04:17:06.339Z,7.25
2023-01-08T04:19:34.174Z,5.70
2023-01-08T04:22:01.967Z,5.25
2023-01-08T04:24:29.744Z,4.50
2023-01-08T04:26:57.584Z,5.50
2023-01-08T04:29:25.287Z,7.03
2023-01-08T04:31:54.474Z,4.75
2023-01-08T04:34:22.304Z,4.80
2023-01-08T04:36:50.067Z,5.82
2023-01-08T04:39:18.181Z,7.50
2023-01-08T04:41:45.937Z,5.30
2023-01-08T04:44:13.764Z,4.97
2023-01-08T04:46:41.570Z,5.30
2023-01-08T04:49:11.600Z,6.30
2023-01-08T04:51:39.353Z,6.75
2023-01-08T04:54:07.481Z,4.78
2023-01-08T04:56:35.219Z,6.50
2023-01-08T04:59:03.070Z,5.40
2023-01-08T05:01:31.464Z,3.35
2023-01-08T05:04:01.181Z,5.13
2023-01-08T05:06:32.302Z,3.97
2023-01-08T05:09:00.677Z,4.60
2023-01-08T05:11:28.736Z,4.57
2023-01-08T05:13:56.815Z,4.70
2023-01-08T05:16:25.112Z,6.03
2023-01-08T05:18:52.870Z,8.63
2023-01-08T05:21:20.606Z,5.45
2023-01-08T05:23:49.828Z,6.43
2023-01-08T05:26:19.482Z,7.70
2023-01-08T05:28:47.658Z,7.00
2023-01-08T05:31:15.967Z,8.98
2023-01-08T05:33:44.117Z,7.18
2023-01-08T05:36:14.039Z,4.63
2023-01-08T05:38:42.374Z,8.48
2023-01-08T05:41:12.061Z,7.43
2023-01-08T05:43:39.872Z,8.57
2023-01-08T05:46:07.674Z,7.93
2023-01-08T05:48:37.254Z,5.43
2023-01-08T05:51:05.832Z,12.52
2023-01-08T05:53:34.014Z,11.00
2023-01-08T05:56:03.256Z,12.77
2023-01-08T05:58:32.781Z,11.02
2023-01-08T06:01:04.982Z,8.55
2023-01-08T06:03:32.961Z,6.68
2023-01-08T06:06:01.979Z,8.02
2023-01-08T06:08:30.399Z,5.72
2023-01-08T06:11:00.727Z,5.97
2023-01-08T06:13:29.054Z,4.85
2023-01-08T06:15:59.751Z,4.60
2023-01-08T06:18:27.854Z,3.30
2023-01-08T06:20:55.660Z,3.58
2023-01-08T06:23:24.039Z,3.53
2023-01-08T06:25:53.897Z,4.43
2023-01-08T06:28:21.739Z,2.72
2023-01-08T06:30:49.704Z,2.05
2023-01-08T06:33:21.077Z,2.28
2023-01-08T06:35:49.127Z,2.45
2023-01-08T06:38:19.130Z,4.03
2023-01-08T06:40:46.985Z,4.93
2023-01-08T06:43:14.816Z,3.60
2023-01-08T06:45:42.602Z,3.08
2023-01-08T06:48:10.365Z,2.17
2023-01-08T06:50:39.788Z,5.28
2023-01-08T06:53:07.544Z,2.72
2023-01-08T06:55:35.323Z,3.15
2023-01-08T06:58:03.151Z,3.20
2023-01-08T07:00:31.624Z,3.35
2023-01-08T07:02:59.484Z,4.63
2023-01-08T07:05:27.380Z,5.00
2023-01-08T07:07:56.724Z,3.38
2023-01-08T07:10:24.610Z,4.05
2023-01-08T07:12:52.374Z,4.20
2023-01-08T07:15:20.415Z,2.40
2023-01-08T07:17:48.212Z,1.92
2023-01-08T07:20:16.564Z,3.40
2023-01-08T07:22:44.350Z,3.28
2023-01-08T07:25:13.686Z,4.63
2023-01-08T07:27:41.580Z,5.75
2023-01-08T07:30:20.899Z,4.15
2023-01-08T07:32:59.648Z,3.92
2023-01-08T07:35:27.505Z,4.20
2023-01-08T07:37:55.281Z,2.75
2023-01-08T07:40:31.767Z,4.28
2023-01-08T07:43:00.444Z,3.53
2023-01-08T07:45:28.716Z,3.72
2023-01-08T07:48:02.805Z,5.60
2023-01-08T07:50:31.143Z,4.60
2023-01-08T07:52:59.684Z,5.38
2023-01-08T07:55:28.426Z,6.57
2023-01-08T07:57:57.817Z,8.15
2023-01-08T08:00:25.624Z,8.63
2023-01-08T08:02:53.509Z,13.75
2023-01-08T08:05:21.423Z,11.65
2023-01-08T08:07:49.360Z,14.82
2023-01-08T08:10:17.791Z,15.95
2023-01-08T08:12:46.349Z,15.00
2023-01-08T08:15:15.658Z,11.63
2023-01-08T08:17:47.076Z,9.15
2023-01-08T08:20:15.077Z,9.00
2023-01-08T08:22:42.912Z,8.35
2023-01-08T08:25:11.440Z,7.13
2023-01-08T08:27:39.265Z,11.65
2023-01-08T08:30:08.446Z,12.07
2023-01-08T08:32:37.828Z,20.38
2023-01-08T08:35:06.346Z,18.25
2023-01-08T08:37:34.159Z,16.92
2023-01-08T08:40:01.886Z,22.83
2023-01-08T08:42:30.559Z,17.15
2023-01-08T08:44:58.293Z,21.35
2023-01-08T08:47:26.113Z,22.50
2023-01-08T08:49:55.226Z,22.65
2023-01-08T08:52:23.055Z,20.83
2023-01-08T08:54:50.814Z,24.90
2023-01-08T08:57:18.552Z,18.05
2023-01-08T08:59:46.324Z,20.05
2023-01-08T09:02:14.250Z,14.38
2023-01-08T09:04:42.244Z,13.68
2023-01-08T09:07:11.408Z,10.77
2023-01-08T09:09:39.129Z,8.30
2023-01-08T09:12:07.456Z,10.80
2023-01-08T09:14:35.230Z,8.18
2023-01-08T09:17:03.137Z,7.93
2023-01-08T09:19:30.948Z,11.52
2023-01-08T09:21:58.749Z,11.20
2023-01-08T09:24:27.848Z,12.00
2023-01-08T09:26:55.915Z,11.75
2023-01-08T09:29:24.013Z,12.30
2023-01-08T09:31:52.297Z,16.98
2023-01-08T09:34:20.092Z,18.80
2023-01-08T09:36:50.904Z,17.48
2023-01-08T09:39:18.798Z,28.00
2023-01-08T09:41:49.002Z,26.35
2023-01-08T09:44:21.680Z,23.48
2023-01-08T09:46:50.829Z,23.48
2023-01-08T09:49:25.156Z,16.50
2023-01-08T09:51:53.875Z,18.55
2023-01-08T09:54:26.135Z,13.85
2023-01-08T09:56:55.971Z,13.57
2023-01-08T09:59:24.241Z,15.35
2023-01-08T10:01:54.297Z,13.48
2023-01-08T10:04:24.405Z,12.40
2023-01-08T10:06:56.396Z,18.60
2023-01-08T10:09:28.180Z,27.35
2023-01-08T10:12:02.821Z,29.95
2023-01-08T10:14:33.361Z,31.70
2023-01-08T10:17:04.964Z,31.88
2023-01-08T10:19:36.248Z,25.27
2023-01-08T10:22:05.106Z,27.55
2023-01-08T10:24:35.202Z,20.83
2023-01-08T10:27:17.338Z,19.50
2023-01-08T10:29:46.903Z,24.98
2023-01-08T10:32:17.485Z,22.95
2023-01-08T10:34:48.580Z,21.75
2023-01-08T10:37:26.941Z,16.88
2023-01-08T10:39:56.333Z,17.85
2023-01-08T10:42:25.838Z,20.23
2023-01-08T10:45:01.192Z,16.40
2023-01-08T10:47:31.980Z,11.43
2023-01-08T10:50:02.136Z,9.82
2023-01-08T10:52:33.682Z,8.27
2023-01-08T10:55:13.120Z,8.43
2023-01-08T10:57:43.826Z,8.02
2023-01-08T11:00:27.179Z,8.68
2023-01-08T11:02:55.541Z,4.45
2023-01-08T11:05:31.216Z,5.50
2023-01-08T11:08:00.744Z,6.35
2023-01-08T11:10:30.213Z,5.75
2023-01-08T11:13:01.619Z,7.30
2023-01-08T11:15:33.327Z,5.07
2023-01-08T11:18:19.574Z,6.97
2023-01-08T11:20:48.220Z,5.47
2023-01-08T11:23:22.112Z,4.25
2023-01-08T11:25:56.950Z,6.80
2023-01-08T11:28:32.902Z,6.32
2023-01-08T11:31:21.361Z,7.88
2023-01-08T11:33:54.894Z,4.82
2023-01-08T11:36:28.458Z,6.13
2023-01-08T11:38:56.323Z,6.80
2023-01-08T11:41:53.953Z,3.03
2023-01-08T11:44:41.857Z,7.60
2023-01-08T11:47:22.704Z,9.23
2023-01-08T11:50:10.101Z,8.55
2023-01-08T11:52:49.732Z,11.35
2023-01-08T11:55:26.810Z,9.57
2023-01-08T11:58:08.711Z,13.77
2023-01-08T12:00:58.723Z,13.52
2023-01-08T12:03:33.563Z,10.00
2023-01-08T12:06:11.606Z,8.50
2023-01-08T12:08:52.687Z,7.18
2023-01-08T12:11:26.780Z,7.63
2023-01-08T12:14:12.917Z,6.25
2023-01-08T12:16:56.914Z,9.93
2023-01-08T12:19:40.139Z,11.95
2023-01-08T12:22:24.200Z,14.15
2023-01-08T12:25:17.745Z,9.82
2023-01-08T12:27:57.427Z,13.50
2023-01-08T12:30:36.555Z,12.48
2023-01-08T12:33:11.144Z,15.38
2023-01-08T12:35:42.484Z,12.52
2023-01-08T12:38:14.260Z,10.50
2023-01-08T12:40:46.380Z,4.75
2023-01-08T12:43:18.932Z,6.15
2023-01-08T12:48:20.027Z,3.83
2023-01-08T12:51:00.755Z,2.90
2023-01-08T12:53:36.780Z,7.15
2023-01-08T12:56:11.860Z,9.18
2023-01-08T12:59:00.753Z,4.45
2023-01-08T13:01:41.664Z,4.22
2023-01-08T13:04:13.547Z,4.70
2023-01-08T13:06:51.853Z,4.78
2023-01-08T13:09:24.701Z,5.40
2023-01-08T13:11:54.073Z,5.22
2023-01-08T13:14:22.454Z,6.68
2023-01-08T13:17:03.595Z,4.30
2023-01-08T13:19:41.328Z,3.42
2023-01-08T13:22:24.564Z,4.38
2023-01-08T13:24:52.797Z,6.03
2023-01-08T13:27:30.649Z,4.72
2023-01-08T13:29:58.757Z,2.85
2023-01-08T13:32:38.034Z,6.57
2023-01-08T13:35:29.506Z,4.72
2023-01-08T13:38:14.234Z,3.83
2023-01-08T13:40:57.528Z,4.60
2023-01-08T13:43:29.975Z,4.38
2023-01-08T13:48:51.614Z,4.50
2023-01-08T13:51:34.921Z,10.02
2023-01-08T13:54:15.160Z,3.25
2023-01-08T13:56:44.371Z,8.52
2023-01-08T13:59:24.680Z,5.20
2023-01-08T14:01:57.136Z,3.78
2023-01-08T14:06:55.420Z,3.55
2023-01-08T14:09:25.399Z,8.55
2023-01-08T14:15:00.547Z,2.83
2023-01-08T14:17:33.361Z,6.03
2023-01-08T14:20:01.412Z,4.45
2023-01-08T14:22:33.998Z,5.13
2023-01-08T14:25:04.690Z,5.35
2023-01-08T14:27:34.363Z,7.38
2023-01-08T14:30:02.993Z,6.65
2023-01-08T14:32:32.324Z,9.60
2023-01-08T14:35:02.263Z,7.45
2023-01-08T14:37:31.630Z,6.18
2023-01-08T14:39:59.527Z,3.60
2023-01-08T14:42:47.282Z,5.53
2023-01-08T14:45:22.403Z,4.38
2023-01-08T14:47:52.683Z,4.07
2023-01-08T14:50:25.285Z,5.10
2023-01-08T14:52:58.955Z,3.60
2023-01-08T14:55:28.602Z,2.38
2023-01-08T14:57:58.224Z,8.50
2023-01-08T15:00:29.092Z,3.35
2023-01-08T15:02:57.102Z,3.25
2023-01-08T15:05:29.759Z,5.55
2023-01-08T15:08:06.183Z,4.07
2023-01-08T15:10:44.441Z,4.35
2023-01-08T15:13:24.104Z,3.88
2023-01-08T15:16:00.601Z,4.38
2023-01-08T15:18:28.930Z,5.25
2023-01-08T15:20:57.081Z,6.80
2023-01-08T15:23:37.185Z,2.97
2023-01-08T15:26:05.196Z,5.22
2023-01-08T15:28:33.154Z,5.45
2023-01-08T15:31:03.618Z,8.45
2023-01-08T15:33:34.206Z,12.25
2023-01-08T15:36:02.013Z,12.63
2023-01-08T15:38:31.759Z,19.17
2023-01-08T15:40:59.551Z,22.38
2023-01-08T15:43:26.316Z,9.93
2023-01-08T15:45:54.211Z,28.63
2023-01-08T15:48:24.831Z,13.65
2023-01-08T15:50:53.545Z,28.95
2023-01-08T15:53:23.581Z,7.88
2023-01-08T15:55:53.189Z,13.80
2023-01-08T15:58:23.621Z,9.65
2023-01-08T16:00:51.582Z,9.73
2023-01-08T16:03:20.288Z,12.10
2023-01-08T16:05:48.213Z,8.63
2023-01-08T16:08:16.051Z,16.55
2023-01-08T16:10:44.057Z,9.48
2023-01-08T16:13:13.242Z,8.85
2023-01-08T16:15:42.296Z,11.55
2023-01-08T16:18:10.225Z,7.93
2023-01-08T16:20:40.196Z,5.75
2023-01-08T16:23:08.673Z,3.15
2023-01-08T16:25:36.755Z,10.65
2023-01-08T16:28:04.631Z,8.25
2023-01-08T16:30:34.143Z,8.18
2023-01-08T16:33:02.136Z,12.32
2023-01-08T16:35:30.496Z,9.35
2023-01-08T16:37:58.593Z,10.60
2023-01-08T16:40:26.710Z,31.30
2023-01-08T16:42:54.712Z,18.92
2023-01-08T16:45:22.812Z,6.68
2023-01-08T16:47:52.736Z,12.07
2023-01-08T16:50:20.485Z,10.38
2023-01-08T16:52:50.916Z,6.15
2023-01-08T16:55:19.596Z,16.17
2023-01-08T16:57:48.018Z,9.48
2023-01-08T17:00:16.968Z,10.95
2023-01-08T17:02:44.972Z,15.07
2023-01-08T17:05:14.967Z,7.63
2023-01-08T17:07:43.125Z,7.00
2023-01-08T17:10:13.192Z,9.50
2023-01-08T17:12:43.549Z,12.93
2023-01-08T17:15:13.229Z,9.38
2023-01-08T17:17:41.893Z,10.80
2023-01-08T17:20:11.765Z,9.73
2023-01-08T17:22:43.221Z,10.95
2023-01-08T17:25:11.695Z,9.80
2023-01-08T17:27:43.161Z,10.70
2023-01-08T17:30:13.422Z,10.30
2023-01-08T17:32:41.895Z,14.43
2023-01-08T17:35:10.405Z,14.45
2023-01-08T17:37:38.447Z,19.00
2023-01-08T17:40:09.603Z,12.77
2023-01-08T17:42:39.813Z,10.80
2023-01-08T17:45:09.948Z,17.15
2023-01-08T17:47:43.466Z,5.38
2023-01-08T17:50:12.820Z,5.47
2023-01-08T17:52:42.009Z,4.93
2023-01-08T17:55:11.773Z,4.63
2023-01-08T17:57:40.818Z,4.82
2023-01-08T18:00:10.299Z,4.40
2023-01-08T18:02:38.412Z,5.38
2023-01-08T18:05:09.537Z,4.32
2023-01-08T18:07:39.117Z,5.07
2023-01-08T18:10:08.704Z,6.20
2023-01-08T18:12:38.231Z,5.60
2023-01-08T18:15:08.522Z,6.35
2023-01-08T18:17:42.745Z,4.20
2023-01-08T18:20:11.755Z,4.47
2023-01-08T18:22:40.032Z,9.23
2023-01-08T18:25:10.123Z,5.97
2023-01-08T18:27:39.695Z,13.07
2023-01-08T18:30:11.470Z,9.07
2023-01-08T18:32:39.377Z,8.30
2023-01-08T18:35:08.034Z,4.88
2023-01-08T18:37:36.073Z,8.50
2023-01-08T18:40:04.053Z,6.28
2023-01-08T18:42:33.202Z,9.05
2023-01-08T18:45:03.657Z,14.63
2023-01-08T18:47:31.888Z,3.55
2023-01-08T18:50:03.502Z,4.57
2023-01-08T18:52:32.604Z,13.73
2023-01-08T18:55:00.323Z,6.93
2023-01-08T18:57:28.973Z,13.23
2023-01-08T18:59:56.791Z,6.07
2023-01-08T19:02:33.111Z,7.22
2023-01-08T19:05:03.429Z,6.03
2023-01-08T19:07:32.934Z,8.75
2023-01-08T19:10:01.322Z,5.93
2023-01-08T19:12:32.022Z,8.95
2023-01-08T19:15:00.041Z,3.65
2023-01-08T19:17:33.096Z,15.77
2023-01-08T19:20:01.012Z,5.40
2023-01-08T19:22:29.566Z,15.50
2023-01-08T19:24:58.054Z,7.57
2023-01-08T19:27:31.015Z,25.38
2023-01-08T19:30:02.536Z,51.22
2023-01-08T19:32:31.811Z,25.13
2023-01-08T19:35:01.606Z,32.53
2023-01-08T19:37:29.393Z,49.80
2023-01-08T19:40:01.094Z,69.63
2023-01-08T19:42:46.355Z,36.75
2023-01-08T19:45:14.349Z,13.85
2023-01-08T19:47:43.739Z,19.00
2023-01-08T19:50:12.734Z,18.88
2023-01-08T19:52:40.645Z,11.50
2023-01-08T19:55:09.004Z,16.30
2023-01-08T19:57:37.099Z,4.63
2023-01-08T20:00:05.821Z,4.78
2023-01-08T20:02:34.034Z,5.93
2023-01-08T20:05:03.324Z,4.13
2023-01-08T20:07:31.178Z,3.50
2023-01-08T20:09:59.120Z,4.40
2023-01-08T20:12:27.220Z,3.70
2023-01-08T20:14:55.169Z,3.05
2023-01-08T20:17:25.216Z,7.90
2023-01-08T20:19:53.307Z,3.65
2023-01-08T20:22:22.855Z,5.00
2023-01-08T20:24:54.036Z,4.03
2023-01-08T20:27:22.439Z,3.45
2023-01-08T20:29:50.537Z,3.00
2023-01-08T20:32:21.035Z,3.53
2023-01-08T20:34:50.735Z,3.90
2023-01-08T20:37:18.868Z,3.70
2023-01-08T20:39:48.260Z,3.85
2023-01-08T20:42:22.074Z,3.80
2023-01-08T20:44:55.400Z,3.22
2023-01-08T20:47:23.615Z,11.13
2023-01-08T20:49:53.004Z,6.47
2023-01-08T20:52:21.156Z,6.43
2023-01-08T20:54:50.726Z,5.30
2023-01-08T20:57:18.533Z,10.43
2023-01-08T20:59:49.082Z,4.40
2023-01-08T21:02:16.865Z,6.50
2023-01-08T21:04:44.622Z,4.22
2023-01-08T21:07:12.426Z,5.85
2023-01-08T21:09:40.492Z,4.20
2023-01-08T21:12:10.341Z,4.82
2023-01-08T21:14:39.238Z,7.13
2023-01-08T21:17:07.133Z,18.23
2023-01-08T21:19:34.872Z,3.90
2023-01-08T21:22:02.911Z,7.95
2023-01-08T21:24:30.773Z,6.47
2023-01-08T21:26:58.615Z,5.85
2023-01-08T21:29:28.718Z,4.40
2023-01-08T21:31:56.503Z,4.38
2023-01-08T21:34:24.325Z,5.93
2023-01-08T21:36:52.423Z,4.22
2023-01-08T21:39:20.221Z,4.28
2023-01-08T21:42:05.672Z,6.20
2023-01-08T21:44:52.130Z,5.10
2023-01-08T21:47:20.037Z,3.58
2023-01-08T21:49:48.214Z,3.88
2023-01-08T21:52:33.661Z,4.60
2023-01-08T21:55:01.704Z,4.78
2023-01-08T21:57:29.782Z,4.40
2023-01-08T22:00:04.111Z,5.15
2023-01-08T22:02:32.354Z,3.65
2023-01-08T22:05:00.162Z,3.00
2023-01-08T22:07:28.524Z,6.32
2023-01-08T22:09:58.256Z,3.00
2023-01-08T22:12:26.138Z,6.38
2023-01-08T22:14:54.358Z,4.32
2023-01-08T22:17:25.518Z,4.90
2023-01-08T22:19:53.846Z,3.13
2023-01-08T22:22:21.908Z,5.30
2023-01-08T22:24:51.165Z,2.53
2023-01-08T22:27:19.458Z,4.18
2023-01-08T22:29:50.074Z,6.50
2023-01-08T22:32:18.105Z,5.97
2023-01-08T22:34:47.489Z,4.78
2023-01-08T22:37:16.949Z,7.82
2023-01-08T22:39:44.932Z,3.22
2023-01-08T22:42:12.965Z,3.47
2023-01-08T22:44:40.992Z,17.08
2023-01-08T22:47:10.219Z,14.00
2023-01-08T22:49:38.468Z,6.72
2023-01-08T22:52:08.755Z,15.05
2023-01-08T22:54:36.644Z,5.05
2023-01-08T22:57:04.475Z,5.38
2023-01-08T22:59:34.591Z,5.07
2023-01-08T23:02:02.375Z,4.43
2023-01-08T23:04:30.330Z,7.45
2023-01-08T23:06:58.044Z,9.52
2023-01-08T23:09:27.492Z,9.70
2023-01-08T23:11:55.357Z,10.13
2023-01-08T23:14:23.186Z,6.32
2023-01-08T23:16:51.037Z,30.90
2023-01-08T23:19:20.983Z,9.55
2023-01-08T23:21:48.775Z,14.43
2023-01-08T23:24:16.689Z,6.28
2023-01-08T23:26:45.988Z,36.50
2023-01-08T23:29:14.066Z,9.13
2023-01-08T23:31:44.119Z,15.40
2023-01-08T23:34:12.671Z,13.07
2023-01-08T23:36:40.806Z,21.30
2023-01-08T23:39:09.257Z,15.35
2023-01-08T23:41:37.017Z,12.70
2023-01-08T23:44:08.150Z,22.98
2023-01-08T23:46:37.725Z,14.52
2023-01-08T23:49:07.036Z,9.10
2023-01-08T23:51:34.813Z,6.03
2023-01-08T23:54:02.675Z,8.40
2023-01-08T23:56:30.465Z,12.73
2023-01-08T23:58:58.980Z,14.35
